createdAt,value
2018-12-29T00:01:07.525Z,101433.29
2018-12-29T00:03:37.081Z,101444.18
2018-12-29T00:06:06.442Z,101435.38
2018-12-29T00:08:36.222Z,101437.97
2018-12-29T00:11:05.527Z,101426.98
2018-12-29T00:13:35.178Z,101423.91
2018-12-29T00:18:39.147Z,101429.98
2018-12-29T00:21:08.645Z,101423.77
2018-12-29T00:23:37.953Z,101423.67
2018-12-29T00:26:07.431Z,101421.83
2018-12-29T00:28:36.749Z,101427.01
2018-12-29T00:31:06.448Z,101427.85
2018-12-29T00:33:35.788Z,101428.66
2018-12-29T00:36:07.253Z,101432.12
2018-12-29T00:38:55.645Z,101345.06
2018-12-29T00:41:24.976Z,101431.99
2018-12-29T00:43:54.304Z,101428.43
2018-12-29T00:46:23.609Z,101373.20
2018-12-29T00:48:53.409Z,101423.08
2018-12-29T00:51:22.737Z,101424.80
2018-12-29T00:53:52.443Z,101426.08
2018-12-29T00:56:21.796Z,101423.89
2018-12-29T01:01:40.019Z,101412.02
2018-12-29T01:04:09.343Z,101421.53
2018-12-29T01:06:38.774Z,101412.28
2018-12-29T01:09:08.228Z,101337.25
2018-12-29T01:11:37.667Z,101413.92
2018-12-29T01:14:06.979Z,101409.45
2018-12-29T01:16:36.425Z,101411.09
2018-12-29T01:19:05.750Z,101365.28
2018-12-29T01:21:35.370Z,101411.27
2018-12-29T01:24:04.707Z,101409.48
2018-12-29T01:26:34.306Z,101417.28
2018-12-29T01:29:03.592Z,101336.08
2018-12-29T01:31:33.386Z,101414.15
2018-12-29T01:34:02.720Z,101408.43
2018-12-29T01:36:32.351Z,101404.42
2018-12-29T01:39:02.036Z,101345.52
2018-12-29T01:41:31.550Z,101408.31
2018-12-29T01:44:00.856Z,101413.09
2018-12-29T01:46:30.597Z,101407.80
2018-12-29T01:48:59.903Z,101406.89
2018-12-29T01:51:29.322Z,101398.22
2018-12-29T01:54:17.567Z,101403.39
2018-12-29T01:56:46.901Z,101408.64
2018-12-29T01:59:16.539Z,101422.56
2018-12-29T02:01:46.379Z,101412.90
2018-12-29T02:04:15.894Z,101414.58
2018-12-29T02:06:45.216Z,101321.50
2018-12-29T02:09:14.998Z,101400.58
2018-12-29T02:11:44.312Z,101396.16
2018-12-29T02:14:13.764Z,101392.66
2018-12-29T02:16:43.106Z,101399.22
2018-12-29T02:19:12.423Z,101391.75
2018-12-29T02:21:41.749Z,101386.50
2018-12-29T02:24:11.406Z,101380.41
2018-12-29T02:26:40.745Z,101393.14
2018-12-29T02:29:10.402Z,101394.45
2018-12-29T02:31:39.768Z,101395.77
2018-12-29T02:34:09.185Z,101385.70
2018-12-29T02:36:38.523Z,101388.76
2018-12-29T02:39:08.759Z,101387.45
2018-12-29T02:41:38.018Z,101383.95
2018-12-29T02:44:07.465Z,101381.33
2018-12-29T02:46:36.824Z,101380.41
2018-12-29T02:49:06.503Z,101372.97
2018-12-29T02:51:35.810Z,101372.50
2018-12-29T02:54:05.240Z,101372.46
2018-12-29T02:56:34.553Z,101367.25
2018-12-29T02:59:04.290Z,101368.95
2018-12-29T03:01:33.615Z,101369.39
2018-12-29T03:04:03.218Z,101355.32
2018-12-29T03:06:32.607Z,101357.50
2018-12-29T03:09:02.202Z,101367.05
2018-12-29T03:11:31.506Z,101363.55
2018-12-29T03:14:00.834Z,101358.70
2018-12-29T03:16:30.227Z,101359.14
2018-12-29T03:19:03.678Z,101356.47
2018-12-29T03:21:36.726Z,101349.11
2018-12-29T03:24:06.042Z,101349.91
2018-12-29T03:26:36.321Z,101345.97
2018-12-29T03:29:25.636Z,101338.09
2018-12-29T03:31:59.194Z,101340.72
2018-12-29T03:34:29.654Z,101343.34
2018-12-29T03:36:59.116Z,101323.86
2018-12-29T03:39:28.472Z,101345.05
2018-12-29T03:44:34.187Z,101337.17
2018-12-29T03:47:23.169Z,101329.81
2018-12-29T03:52:42.731Z,101319.27
2018-12-29T03:55:12.440Z,101325.28
2018-12-29T03:57:41.784Z,101281.83
2018-12-29T04:00:11.382Z,101325.28
2018-12-29T04:02:40.698Z,101287.64
2018-12-29T04:05:10.305Z,101340.64
2018-12-29T04:07:39.708Z,101294.12
2018-12-29T04:10:13.725Z,101341.55
2018-12-29T04:12:45.990Z,101304.62
2018-12-29T04:15:15.309Z,101340.72
2018-12-29T04:17:45.014Z,101325.05
2018-12-29T04:20:14.390Z,101330.77
2018-12-29T04:22:44.059Z,101340.80
2018-12-29T04:25:13.383Z,101334.66
2018-12-29T04:27:43.052Z,101337.38
2018-12-29T04:30:12.412Z,101329.90
2018-12-29T04:32:41.836Z,101343.94
2018-12-29T04:35:11.168Z,101266.16
2018-12-29T04:37:40.676Z,101329.58
2018-12-29T04:40:10.008Z,101331.41
2018-12-29T04:45:14.405Z,101328.34
2018-12-29T04:47:43.733Z,101292.72
2018-12-29T04:50:13.399Z,101296.26
2018-12-29T04:52:42.740Z,101333.59
2018-12-29T04:55:12.947Z,101345.41
2018-12-29T04:57:42.289Z,101332.28
2018-12-29T05:00:11.964Z,101329.66
2018-12-29T05:02:41.402Z,101333.09
2018-12-29T05:05:10.888Z,101322.58
2018-12-29T05:07:40.220Z,101327.35
2018-12-29T05:10:09.917Z,101319.48
2018-12-29T05:12:39.264Z,101313.79
2018-12-29T05:15:08.685Z,101319.00
2018-12-29T05:17:38.022Z,101332.13
2018-12-29T05:20:07.500Z,101322.94
2018-12-29T05:22:36.904Z,101323.33
2018-12-29T05:25:25.288Z,101325.95
2018-12-29T05:27:54.941Z,101323.41
2018-12-29T05:30:24.254Z,101318.16
2018-12-29T05:32:53.916Z,101314.63
2018-12-29T05:35:23.293Z,101317.30
2018-12-29T05:37:52.824Z,101315.54
2018-12-29T05:40:22.189Z,101315.54
2018-12-29T05:42:51.738Z,101316.02
2018-12-29T05:45:21.056Z,101253.20
2018-12-29T05:47:50.637Z,101316.50
2018-12-29T05:50:19.958Z,101317.34
2018-12-29T05:52:49.462Z,101318.25
2018-12-29T05:55:18.836Z,101243.47
2018-12-29T05:57:48.476Z,101317.84
2018-12-29T06:00:17.816Z,101320.88
2018-12-29T06:02:47.288Z,101311.28
2018-12-29T06:05:16.624Z,101313.91
2018-12-29T06:07:46.200Z,101309.55
2018-12-29T06:10:15.527Z,101259.09
2018-12-29T06:12:45.403Z,101292.08
2018-12-29T06:15:14.708Z,101299.08
2018-12-29T06:17:44.348Z,101294.79
2018-12-29T06:20:13.676Z,101253.53
2018-12-29T06:22:43.421Z,101290.77
2018-12-29T06:25:12.761Z,101288.22
2018-12-29T06:27:42.401Z,101293.88
2018-12-29T06:30:30.787Z,101271.77
2018-12-29T06:33:00.126Z,101280.75
2018-12-29T06:35:29.449Z,101289.05
2018-12-29T06:38:17.702Z,101287.75
2018-12-29T06:40:47.021Z,101289.05
2018-12-29T06:43:16.438Z,101297.81
2018-12-29T06:45:45.776Z,101209.58
2018-12-29T06:48:15.244Z,101299.64
2018-12-29T06:50:44.549Z,101248.77
2018-12-29T06:53:14.568Z,101295.70
2018-12-29T06:55:43.891Z,101298.80
2018-12-29T06:58:13.284Z,101296.66
2018-12-29T07:00:42.653Z,101248.36
2018-12-29T07:03:12.480Z,101292.24
2018-12-29T07:05:41.808Z,101297.58
2018-12-29T07:08:11.532Z,101294.04
2018-12-29T07:13:29.153Z,101298.48
2018-12-29T07:15:58.826Z,101293.23
2018-12-29T07:18:28.139Z,101290.61
2018-12-29T07:20:57.901Z,101294.95
2018-12-29T07:23:27.218Z,101286.20
2018-12-29T07:25:57.154Z,101281.83
2018-12-29T07:28:26.658Z,101271.41
2018-12-29T07:30:56.630Z,101273.95
2018-12-29T07:33:26.036Z,101202.63
2018-12-29T07:35:55.656Z,101271.37
2018-12-29T07:38:24.974Z,101186.26
2018-12-29T07:41:13.349Z,101290.61
2018-12-29T07:43:43.116Z,101290.61
2018-12-29T07:46:31.607Z,101294.12
2018-12-29T07:49:00.969Z,101278.38
2018-12-29T07:51:30.409Z,101281.08
2018-12-29T07:53:59.850Z,101289.86
2018-12-29T07:56:29.266Z,101288.52
2018-12-29T07:59:17.750Z,101297.73
2018-12-29T08:01:47.068Z,101290.77
2018-12-29T08:04:35.340Z,101289.46
2018-12-29T08:07:04.817Z,101289.46
2018-12-29T08:09:34.146Z,101307.36
2018-12-29T08:12:03.581Z,101294.80
2018-12-29T08:14:32.992Z,101296.10
2018-12-29T08:17:02.428Z,101297.81
2018-12-29T08:19:31.767Z,101302.15
2018-12-29T08:22:01.151Z,101308.23
2018-12-29T08:24:49.599Z,101305.61
2018-12-29T08:27:18.964Z,101297.34
2018-12-29T08:29:48.395Z,101288.95
2018-12-29T08:32:36.795Z,101295.98
2018-12-29T08:35:06.542Z,101297.70
2018-12-29T08:37:35.857Z,101192.50
2018-12-29T08:40:05.319Z,101280.20
2018-12-29T08:42:34.986Z,101268.75
2018-12-29T08:45:04.598Z,101255.58
2018-12-29T08:47:33.939Z,101221.17
2018-12-29T08:50:03.355Z,101262.38
2018-12-29T08:52:32.667Z,101221.97
2018-12-29T08:55:02.570Z,101247.37
2018-12-29T08:57:31.949Z,101231.88
2018-12-29T09:00:01.381Z,101242.03
2018-12-29T09:02:30.747Z,101245.84
2018-12-29T09:05:00.471Z,101236.22
2018-12-29T09:07:29.807Z,101222.92
2018-12-29T09:09:59.407Z,101243.09
2018-12-29T09:12:28.730Z,101199.64
2018-12-29T09:14:58.385Z,101250.88
2018-12-29T09:17:27.723Z,101246.03
2018-12-29T09:19:57.371Z,101247.74
2018-12-29T09:22:26.713Z,101246.86
2018-12-29T09:24:56.304Z,101238.06
2018-12-29T09:27:25.612Z,101144.66
2018-12-29T09:29:55.169Z,101231.90
2018-12-29T09:32:24.531Z,101223.09
2018-12-29T09:34:54.059Z,101205.94
2018-12-29T09:37:23.376Z,101191.11
2018-12-29T09:39:52.945Z,101194.08
2018-12-29T09:42:22.263Z,101202.70
2018-12-29T09:44:51.811Z,101205.28
2018-12-29T09:49:56.578Z,101209.56
2018-12-29T09:55:01.404Z,101211.84
2018-12-29T09:57:30.746Z,101214.43
2018-12-29T10:00:00.649Z,101207.81
2018-12-29T10:02:29.979Z,101213.07
2018-12-29T10:04:59.552Z,101213.98
2018-12-29T10:07:28.886Z,101170.06
2018-12-29T10:09:58.477Z,101207.42
2018-12-29T10:12:27.840Z,101212.94
2018-12-29T10:14:57.380Z,101206.32
2018-12-29T10:17:27.861Z,101196.24
2018-12-29T10:19:58.087Z,101190.47
2018-12-29T10:22:27.432Z,101179.47
2018-12-29T10:24:56.914Z,101176.36
2018-12-29T10:27:26.306Z,101174.95
2018-12-29T10:29:55.713Z,101162.70
2018-12-29T10:32:25.030Z,101156.56
2018-12-29T10:34:54.684Z,101153.11
2018-12-29T10:37:24.007Z,101149.56
2018-12-29T10:39:53.493Z,101142.50
2018-12-29T10:42:22.855Z,101100.95
2018-12-29T10:44:52.625Z,101127.61
2018-12-29T10:47:21.934Z,101137.25
2018-12-29T10:49:51.363Z,101135.02
2018-12-29T10:52:20.683Z,101088.70
2018-12-29T10:54:50.283Z,101127.66
2018-12-29T10:57:19.665Z,101034.86
2018-12-29T10:59:49.253Z,101126.34
2018-12-29T11:02:18.718Z,101114.92
2018-12-29T11:07:23.386Z,101093.06
2018-12-29T11:09:52.732Z,101079.94
2018-12-29T11:12:22.378Z,101131.08
2018-12-29T11:14:51.709Z,101085.09
2018-12-29T11:17:21.546Z,101130.73
2018-12-29T11:20:10.029Z,101135.21
2018-12-29T11:22:39.395Z,101127.86
2018-12-29T11:25:09.161Z,101117.84
2018-12-29T11:27:38.534Z,101106.94
2018-12-29T11:30:08.349Z,101109.04
2018-12-29T11:32:38.324Z,101095.31
2018-12-29T11:35:07.972Z,101086.52
2018-12-29T11:37:37.345Z,101012.16
2018-12-29T11:42:55.594Z,101076.39
2018-12-29T11:45:24.923Z,101063.59
2018-12-29T11:47:54.559Z,101051.38
2018-12-29T11:50:24.037Z,101015.41
2018-12-29T11:52:53.932Z,101059.26
2018-12-29T11:55:23.601Z,101044.78
2018-12-29T11:57:53.396Z,101065.83
2018-12-29T12:00:22.781Z,101064.61
2018-12-29T12:02:52.342Z,101059.36
2018-12-29T12:05:21.865Z,101059.75
2018-12-29T12:07:51.553Z,101060.14
2018-12-29T12:10:21.205Z,101054.45
2018-12-29T12:12:50.648Z,101052.47
2018-12-29T12:15:20.006Z,101054.11
2018-12-29T12:17:49.412Z,101039.70
2018-12-29T12:20:18.767Z,101036.61
2018-12-29T12:22:48.668Z,101031.25
2018-12-29T12:25:17.971Z,100985.79
2018-12-29T12:27:47.690Z,101006.72
2018-12-29T12:30:17.053Z,101000.09
2018-12-29T12:32:46.590Z,101004.43
2018-12-29T12:35:16.033Z,100971.95
2018-12-29T12:37:45.572Z,100982.94
2018-12-29T12:40:33.791Z,100956.12
2018-12-29T12:43:03.144Z,100966.70
2018-12-29T12:45:32.634Z,100967.52
2018-12-29T12:48:05.216Z,100874.41
2018-12-29T12:50:33.899Z,100959.53
2018-12-29T12:53:03.221Z,100963.47
2018-12-29T12:55:32.967Z,100913.20
2018-12-29T12:58:21.524Z,100958.56
2018-12-29T13:00:52.839Z,100962.45
2018-12-29T13:03:22.528Z,100963.77
2018-12-29T13:05:52.437Z,100962.05
2018-12-29T13:08:21.813Z,100959.53
2018-12-29T13:10:51.476Z,100954.17
2018-12-29T13:13:20.818Z,100952.36
2018-12-29T13:15:50.407Z,100939.33
2018-12-29T13:18:19.796Z,100948.92
2018-12-29T13:20:49.420Z,100953.28
2018-12-29T13:23:18.762Z,100948.92
2018-12-29T13:25:48.215Z,100950.23
2018-12-29T13:28:17.603Z,100949.50
2018-12-29T13:31:06.024Z,100952.33
2018-12-29T13:33:35.562Z,100945.87
2018-12-29T13:36:25.593Z,100940.67
2018-12-29T13:38:54.922Z,100942.97
2018-12-29T13:41:24.301Z,100949.59
2018-12-29T13:51:38.461Z,100955.62
2018-12-29T13:56:42.237Z,100969.05
2018-12-29T13:59:11.994Z,100969.29
2018-12-29T14:01:41.333Z,100963.50
2018-12-29T14:04:11.002Z,100963.07
2018-12-29T14:06:40.340Z,100910.59
2018-12-29T14:09:10.069Z,100951.69
2018-12-29T14:11:39.406Z,100947.42
2018-12-29T14:14:08.821Z,100937.74
2018-12-29T14:16:38.410Z,100932.70
2018-12-29T14:19:08.124Z,100914.33
2018-12-29T14:21:38.353Z,100900.28
2018-12-29T14:24:07.678Z,100897.61
2018-12-29T14:26:37.017Z,100884.96
2018-12-29T14:29:06.424Z,100879.23
2018-12-29T14:31:35.811Z,100835.49
2018-12-29T14:34:05.356Z,100860.52
2018-12-29T14:36:34.727Z,100851.29
2018-12-29T14:39:24.766Z,100836.62
2018-12-29T14:41:54.144Z,100810.59
2018-12-29T14:44:23.533Z,100798.91
2018-12-29T14:47:11.922Z,100771.91
2018-12-29T14:49:41.448Z,100735.70
2018-12-29T14:52:10.778Z,100724.82
2018-12-29T14:54:40.558Z,100751.78
2018-12-29T14:57:10.139Z,100826.82
2018-12-29T14:59:58.553Z,100826.72
2018-12-29T15:02:28.064Z,100847.37
2018-12-29T15:05:16.353Z,100794.95
2018-12-29T15:07:45.699Z,100834.98
2018-12-29T15:10:15.288Z,100839.39
2018-12-29T15:12:44.614Z,100848.10
2018-12-29T15:15:14.517Z,100838.48
2018-12-29T15:17:43.830Z,100793.54
2018-12-29T15:20:13.528Z,100834.20
2018-12-29T15:22:42.833Z,100801.02
2018-12-29T15:25:12.215Z,100840.05
2018-12-29T15:27:43.308Z,100841.06
2018-12-29T15:30:12.623Z,100841.85
2018-12-29T15:32:41.984Z,100841.85
2018-12-29T15:35:11.689Z,100846.70
2018-12-29T15:37:41.016Z,100822.39
2018-12-29T15:40:10.349Z,100840.64
2018-12-29T15:42:44.863Z,100836.21
2018-12-29T15:47:59.164Z,100834.08
2018-12-29T15:50:28.643Z,100837.23
2018-12-29T15:52:58.136Z,100836.36
2018-12-29T15:55:27.596Z,100827.18
2018-12-29T15:58:15.945Z,100827.52
2018-12-29T16:00:45.261Z,100817.84
2018-12-29T16:03:14.997Z,100813.09
2018-12-29T16:05:44.320Z,100811.73
2018-12-29T16:08:13.789Z,100806.95
2018-12-29T16:10:43.286Z,100808.38
2018-12-29T16:13:12.659Z,100794.83
2018-12-29T16:15:42.148Z,100780.45
2018-12-29T16:18:12.338Z,100785.70
2018-12-29T16:20:41.728Z,100787.59
2018-12-29T16:23:11.062Z,100788.52
2018-12-29T16:25:40.716Z,100783.27
2018-12-29T16:28:10.093Z,100785.36
2018-12-29T16:30:39.445Z,100782.73
2018-12-29T16:33:08.932Z,100775.40
2018-12-29T16:35:38.246Z,100769.34
2018-12-29T16:38:09.319Z,100768.52
2018-12-29T16:40:38.858Z,100766.00
2018-12-29T16:43:27.158Z,100754.20
2018-12-29T16:45:56.561Z,100760.75
2018-12-29T16:48:25.923Z,100749.48
2018-12-29T16:51:16.027Z,100755.56
2018-12-29T16:53:47.350Z,100747.75
2018-12-29T16:59:05.853Z,100743.52
2018-12-29T17:01:35.625Z,100742.60
2018-12-29T17:04:04.963Z,100713.36
2018-12-29T17:06:34.929Z,100735.66
2018-12-29T17:12:13.616Z,100731.33
2018-12-29T17:15:02.282Z,100726.08
2018-12-29T17:17:31.657Z,100732.22
2018-12-29T17:20:01.210Z,100723.96
2018-12-29T17:22:30.797Z,100723.56
2018-12-29T17:25:00.664Z,100720.95
2018-12-29T17:27:30.004Z,100731.44
2018-12-29T17:30:00.010Z,100728.33
2018-12-29T17:32:29.345Z,100735.37
2018-12-29T17:34:58.982Z,100735.97
2018-12-29T17:37:28.292Z,100641.90
2018-12-29T17:39:57.754Z,100733.56
2018-12-29T17:42:27.297Z,100737.05
2018-12-29T17:44:56.745Z,100738.75
2018-12-29T17:47:26.098Z,100738.86
2018-12-29T17:49:55.659Z,100736.23
2018-12-29T17:52:25.009Z,100739.77
2018-12-29T17:54:56.289Z,100739.77
2018-12-29T17:57:25.665Z,100732.70
2018-12-29T18:02:43.657Z,100728.37
2018-12-29T18:05:32.010Z,100696.52
2018-12-29T18:08:01.355Z,100735.36
2018-12-29T18:10:31.224Z,100726.67
2018-12-29T18:13:00.571Z,100724.05
2018-12-29T18:15:30.104Z,100721.81
2018-12-29T18:17:59.408Z,100719.59
2018-12-29T18:20:28.928Z,100713.03
2018-12-29T18:22:58.259Z,100723.08
2018-12-29T18:25:27.886Z,100723.62
2018-12-29T18:27:57.203Z,100717.06
2018-12-29T18:30:26.952Z,100721.00
2018-12-29T18:32:56.271Z,100688.26
2018-12-29T18:35:25.809Z,100728.37
2018-12-29T18:37:55.132Z,100729.23
2018-12-29T18:40:24.703Z,100724.83
2018-12-29T18:42:54.030Z,100723.12
2018-12-29T18:45:23.701Z,100724.78
2018-12-29T18:47:53.025Z,100725.55
2018-12-29T18:50:22.488Z,100723.84
2018-12-29T18:52:51.909Z,100675.88
2018-12-29T18:55:21.516Z,100729.48
2018-12-29T18:57:51.208Z,100683.73
2018-12-29T19:00:20.865Z,100723.41
2018-12-29T19:02:50.203Z,100740.41
2018-12-29T19:05:19.935Z,100729.08
2018-12-29T19:08:08.597Z,100721.22
2018-12-29T19:10:37.915Z,100734.33
2018-12-29T19:13:07.523Z,100731.28
2018-12-29T19:15:37.284Z,100737.84
2018-12-29T19:18:07.145Z,100734.38
2018-12-29T19:20:38.429Z,100684.67
2018-12-29T19:23:08.235Z,100733.91
2018-12-29T19:25:37.586Z,100731.76
2018-12-29T19:28:07.202Z,100718.70
2018-12-29T19:30:38.408Z,100719.09
2018-12-29T19:33:08.024Z,100711.62
2018-12-29T19:35:37.438Z,100706.48
2018-12-29T19:38:06.815Z,100709.62
2018-12-29T19:40:36.522Z,100703.08
2018-12-29T19:43:05.856Z,100703.12
2018-12-29T19:45:35.762Z,100706.19
2018-12-29T19:48:25.125Z,100707.11
2018-12-29T19:50:55.425Z,100708.00
2018-12-29T19:53:26.641Z,100711.64
2018-12-29T19:55:56.215Z,100721.73
2018-12-29T20:01:00.818Z,100715.17
2018-12-29T20:03:30.155Z,100714.80
2018-12-29T20:05:59.819Z,100713.57
2018-12-29T20:08:30.875Z,100711.05
2018-12-29T20:11:00.326Z,100712.80
2018-12-29T20:13:29.753Z,100706.25
2018-12-29T20:15:59.251Z,100708.01
2018-12-29T20:18:29.313Z,100709.41
2018-12-29T20:20:59.059Z,100708.53
2018-12-29T20:23:28.481Z,100705.48
2018-12-29T20:25:58.000Z,100712.03
2018-12-29T20:28:27.459Z,100718.14
2018-12-29T20:30:56.784Z,100718.09
2018-12-29T20:33:26.514Z,100715.58
2018-12-29T20:36:15.038Z,100725.14
2018-12-29T20:38:44.830Z,100729.98
2018-12-29T20:41:14.231Z,100731.69
2018-12-29T20:43:43.803Z,100737.84
2018-12-29T20:46:13.236Z,100748.38
2018-12-29T20:48:42.616Z,100746.63
2018-12-29T20:51:12.000Z,100745.71
2018-12-29T20:54:00.473Z,100750.95
2018-12-29T20:56:30.143Z,100748.82
2018-12-29T20:59:00.468Z,100733.44
2018-12-29T21:01:29.984Z,100757.80
2018-12-29T21:03:59.391Z,100763.04
2018-12-29T21:06:28.770Z,100753.48
2018-12-29T21:08:58.151Z,100757.80
2018-12-29T21:11:27.695Z,100756.09
2018-12-29T21:13:57.094Z,100756.91
2018-12-29T21:16:26.551Z,100763.04
2018-12-29T21:18:55.920Z,100768.70
2018-12-29T21:21:25.294Z,100768.28
2018-12-29T21:23:54.746Z,100743.48
2018-12-29T21:26:24.143Z,100762.20
2018-12-29T21:28:53.539Z,100764.78
2018-12-29T21:31:23.293Z,100766.97
2018-12-29T21:33:52.658Z,100769.10
2018-12-29T21:36:22.072Z,100759.53
2018-12-29T21:38:51.451Z,100725.03
2018-12-29T21:41:39.868Z,100763.95
2018-12-29T21:44:09.875Z,100764.88
2018-12-29T21:46:39.221Z,100767.50
2018-12-29T21:49:08.595Z,100771.43
2018-12-29T21:51:38.051Z,100719.47
2018-12-29T21:54:07.879Z,100767.94
2018-12-29T21:56:38.303Z,100709.45
2018-12-29T21:59:07.723Z,100768.38
2018-12-29T22:01:56.101Z,100773.63
2018-12-29T22:04:25.472Z,100774.54
2018-12-29T22:06:55.077Z,100777.16
2018-12-29T22:09:24.466Z,100778.77
2018-12-29T22:11:54.240Z,100788.36
2018-12-29T22:14:23.608Z,100785.75
2018-12-29T22:16:53.274Z,100789.16
2018-12-29T22:19:22.622Z,100783.13
2018-12-29T22:21:54.420Z,100787.55
2018-12-29T22:24:23.807Z,100800.65
2018-12-29T22:27:12.284Z,100801.47
2018-12-29T22:29:41.672Z,100803.56
2018-12-29T22:32:11.068Z,100808.02
2018-12-29T22:34:40.510Z,100811.13
2018-12-29T22:37:09.896Z,100809.00
2018-12-29T22:39:39.285Z,100808.56
2018-12-29T22:42:08.811Z,100807.64
2018-12-29T22:44:38.143Z,100810.22
2018-12-29T22:47:07.683Z,100821.52
2018-12-29T22:49:37.142Z,100820.61
2018-12-29T22:52:06.717Z,100817.94
2018-12-29T22:54:55.093Z,100823.66
2018-12-29T22:57:24.589Z,100834.53
2018-12-29T22:59:54.320Z,100830.99
2018-12-29T23:04:59.391Z,100832.40
2018-12-29T23:07:28.867Z,100836.23
2018-12-29T23:09:58.254Z,100836.19
2018-12-29T23:12:27.579Z,100843.09
2018-12-29T23:14:57.907Z,100835.70
2018-12-29T23:17:46.320Z,100842.20
2018-12-29T23:20:15.671Z,100844.83
2018-12-29T23:22:44.995Z,100846.58
2018-12-29T23:25:14.390Z,100818.88
2018-12-29T23:27:44.090Z,100858.47
2018-12-29T23:30:13.394Z,100859.29
2018-12-29T23:32:43.228Z,100871.18
2018-12-29T23:35:12.552Z,100865.89
2018-12-29T23:37:41.971Z,100873.33
2018-12-29T23:40:11.389Z,100868.52
2018-12-29T23:42:41.098Z,100878.13
2018-12-29T23:45:10.467Z,100837.95
2018-12-29T23:50:28.548Z,100878.78
2018-12-29T23:52:59.787Z,100859.98
2018-12-29T23:55:29.470Z,100883.59
2018-12-29T23:57:59.081Z,100881.89
